Time;durP1;ratioP1;P1;durP2;ratioP2;P2;SDS_P1;SDS_P2;PMS_P1;PMS_P2;Temp;Humidity;BMP_temperature;BMP_pressure;BME280_temperature;BME280_humidity;BME280_pressure;Samples;Min_cycle;Max_cycle;Signal;HPM_P1;HPM_P2
2024/01/25 00:01:34;;;;;;;15.38;9.88;;;;;;;;;;5067097;28;20068;-80
2024/01/25 00:04:00;;;;;;;18.75;12.60;;;;;;;;;;5044963;28;20040;-81
2024/01/25 00:06:26;;;;;;;13.07;9.23;;;;;;;;;;5061737;28;20036;-81
2024/01/25 00:08:53;;;;;;;13.05;9.15;;;;;;;;;;5045141;28;20066;-80
2024/01/25 00:11:19;;;;;;;13.57;10.20;;;;;;;;;;5062246;28;20041;-80
2024/01/25 00:17:38;;;;;;;12.65;9.68;;;;;;;;;;5061194;28;20044;-79
2024/01/25 00:20:05;;;;;;;14.07;9.63;;;;;;;;;;5058776;28;20029;-80
2024/01/25 00:22:32;;;;;;;17.08;10.05;;;;;;;;;;5057329;28;20036;-80
2024/01/25 00:24:58;;;;;;;13.63;8.98;;;;;;;;;;5045893;28;20025;-80
2024/01/25 00:27:25;;;;;;;15.90;10.70;;;;;;;;;;5066340;28;20047;-80
2024/01/25 00:29:51;;;;;;;15.52;9.95;;;;;;;;;;5068832;28;20033;-80
2024/01/25 00:32:17;;;;;;;12.45;9.75;;;;;;;;;;5068226;28;20041;-79
2024/01/25 00:34:44;;;;;;;14.45;9.23;;;;;;;;;;5047417;28;20036;-79
2024/01/25 00:37:10;;;;;;;11.40;9.65;;;;;;;;;;5048833;28;20104;-79
2024/01/25 00:39:36;;;;;;;13.80;8.52;;;;;;;;;;5050278;28;20025;-80
2024/01/25 00:42:05;;;;;;;11.13;7.97;;;;;;;;;;5067407;28;20044;-79
2024/01/25 00:44:31;;;;;;;17.77;10.65;;;;;;;;;;5051641;28;20033;-81
2024/01/25 00:46:57;;;;;;;14.60;9.55;;;;;;;;;;5072483;28;20039;-81
2024/01/25 00:49:23;;;;;;;14.63;9.57;;;;;;;;;;5053782;28;20032;-80
2024/01/25 00:51:49;;;;;;;15.80;10.85;;;;;;;;;;5037667;28;20048;-80
2024/01/25 00:54:15;;;;;;;14.02;9.50;;;;;;;;;;5028309;28;20059;-80
2024/01/25 00:56:41;;;;;;;9.68;7.82;;;;;;;;;;5053171;28;20029;-81
2024/01/25 00:59:07;;;;;;;9.05;7.28;;;;;;;;;;5051301;28;20084;-81
2024/01/25 01:01:33;;;;;;;18.45;12.93;;;;;;;;;;5054832;28;20035;-81
2024/01/25 01:03:59;;;;;;;11.88;9.25;;;;;;;;;;5057606;28;20040;-82
2024/01/25 01:06:25;;;;;;;14.02;9.20;;;;;;;;;;5079606;28;20024;-83
2024/01/25 01:08:52;;;;;;;12.48;8.77;;;;;;;;;;5062632;28;20036;-82
2024/01/25 01:11:18;;;;;;;12.05;8.73;;;;;;;;;;5059936;28;20168;-82
2024/01/25 01:13:44;;;;;;;15.80;10.10;;;;;;;;;;5056947;28;20052;-81
2024/01/25 01:16:10;;;;;;;12.38;8.95;;;;;;;;;;5070707;28;20521;-81
2024/01/25 01:18:39;;;;;;;12.20;8.27;;;;;;;;;;5035974;28;20067;-81
2024/01/25 01:21:04;;;;;;;12.90;9.80;;;;;;;;;;5053961;28;20005;-80
2024/01/25 01:23:31;;;;;;;16.08;11.27;;;;;;;;;;5053147;28;20030;-81
2024/01/25 01:25:56;;;;;;;11.75;9.13;;;;;;;;;;5071890;28;20043;-81
2024/01/25 01:28:22;;;;;;;10.40;9.00;;;;;;;;;;5057181;28;20077;-83
2024/01/25 01:30:48;;;;;;;10.73;9.20;;;;;;;;;;5050366;28;20041;-84
2024/01/25 01:33:14;;;;;;;13.32;9.65;;;;;;;;;;5059383;28;20014;-82
2024/01/25 01:35:40;;;;;;;13.02;9.18;;;;;;;;;;5077016;28;20033;-83
2024/01/25 01:38:06;;;;;;;12.38;10.02;;;;;;;;;;5078311;28;20041;-83
2024/01/25 01:40:32;;;;;;;14.75;10.07;;;;;;;;;;5060661;28;20013;-82
2024/01/25 01:42:59;;;;;;;23.38;9.35;;;;;;;;;;5059432;28;20021;-82
2024/01/25 01:45:25;;;;;;;14.95;9.32;;;;;;;;;;5044457;28;20047;-81
2024/01/25 01:47:51;;;;;;;9.52;8.20;;;;;;;;;;5078358;28;20037;-81
2024/01/25 01:50:20;;;;;;;15.20;9.57;;;;;;;;;;5076178;28;20036;-82
2024/01/25 01:52:46;;;;;;;12.45;9.40;;;;;;;;;;5058669;28;20037;-81
2024/01/25 01:55:12;;;;;;;11.52;8.63;;;;;;;;;;5055166;28;20039;-80
2024/01/25 01:57:40;;;;;;;18.75;11.13;;;;;;;;;;5065773;28;20041;-80
2024/01/25 02:00:08;;;;;;;14.23;9.05;;;;;;;;;;5050528;28;20033;-80
2024/01/25 02:02:37;;;;;;;13.23;9.68;;;;;;;;;;5060002;28;20033;-81
2024/01/25 02:05:03;;;;;;;12.70;9.77;;;;;;;;;;5058574;28;20119;-80
2024/01/25 02:07:29;;;;;;;20.73;12.05;;;;;;;;;;5061683;28;20045;-79
2024/01/25 02:09:55;;;;;;;12.60;9.38;;;;;;;;;;5039667;28;20035;-84
2024/01/25 02:12:21;;;;;;;12.60;9.45;;;;;;;;;;5057552;28;20076;-83
2024/01/25 02:14:47;;;;;;;10.32;7.65;;;;;;;;;;5055520;28;20036;-83
2024/01/25 02:17:13;;;;;;;14.18;10.88;;;;;;;;;;5057924;28;20068;-82
2024/01/25 02:19:39;;;;;;;17.27;9.88;;;;;;;;;;5069919;28;20083;-80
2024/01/25 02:22:05;;;;;;;16.17;10.98;;;;;;;;;;5023532;28;20037;-80
2024/01/25 02:24:31;;;;;;;17.10;13.00;;;;;;;;;;5040309;28;20025;-79
2024/01/25 02:26:57;;;;;;;21.27;13.30;;;;;;;;;;5042585;28;20063;-80
2024/01/25 02:29:22;;;;;;;13.32;9.45;;;;;;;;;;5040981;28;20098;-79
2024/01/25 02:31:48;;;;;;;11.93;10.13;;;;;;;;;;5043019;28;20044;-80
2024/01/25 02:34:14;;;;;;;13.07;8.45;;;;;;;;;;5040545;28;20032;-81
2024/01/25 02:36:40;;;;;;;11.63;8.90;;;;;;;;;;5044652;28;20144;-81
2024/01/25 02:39:06;;;;;;;13.50;7.95;;;;;;;;;;5070620;28;20119;-80
2024/01/25 02:41:32;;;;;;;19.20;13.13;;;;;;;;;;5044907;28;20028;-80
2024/01/25 02:43:58;;;;;;;15.07;9.13;;;;;;;;;;5038175;28;20021;-79
2024/01/25 02:46:24;;;;;;;12.15;9.70;;;;;;;;;;5070494;28;20041;-80
2024/01/25 02:48:50;;;;;;;10.13;8.80;;;;;;;;;;5029043;28;20129;-79
2024/01/25 02:51:16;;;;;;;13.18;8.55;;;;;;;;;;5072718;28;20101;-81
2024/01/25 02:53:42;;;;;;;12.27;7.95;;;;;;;;;;5042019;28;20024;-78
2024/01/25 02:56:07;;;;;;;12.45;7.43;;;;;;;;;;5051746;28;20025;-78
2024/01/25 02:58:33;;;;;;;10.77;8.35;;;;;;;;;;5051729;28;20419;-78
2024/01/25 03:00:59;;;;;;;14.45;9.23;;;;;;;;;;5049490;28;20029;-78
2024/01/25 03:03:25;;;;;;;11.30;9.77;;;;;;;;;;5055934;28;20035;-81
2024/01/25 03:05:51;;;;;;;14.57;9.27;;;;;;;;;;5027507;28;20031;-81
2024/01/25 03:08:17;;;;;;;11.43;8.85;;;;;;;;;;5064474;28;20032;-80
2024/01/25 03:10:43;;;;;;;13.60;9.70;;;;;;;;;;5063628;28;20032;-80
2024/01/25 03:13:09;;;;;;;11.20;8.70;;;;;;;;;;5018701;28;20065;-79
2024/01/25 03:15:34;;;;;;;12.80;8.65;;;;;;;;;;5056922;28;20114;-80
2024/01/25 03:18:00;;;;;;;9.73;8.52;;;;;;;;;;5060044;28;20045;-81
2024/01/25 03:20:26;;;;;;;9.27;7.38;;;;;;;;;;5056870;28;20029;-79
2024/01/25 03:22:52;;;;;;;12.02;7.28;;;;;;;;;;5053702;28;20044;-79
2024/01/25 03:25:18;;;;;;;9.23;7.68;;;;;;;;;;5053306;28;20535;-78
2024/01/25 03:27:45;;;;;;;10.63;8.20;;;;;;;;;;5054177;28;20499;-80
2024/01/25 03:30:11;;;;;;;11.32;8.25;;;;;;;;;;5052617;28;20082;-78
2024/01/25 03:32:37;;;;;;;10.95;7.72;;;;;;;;;;5051059;28;20025;-79
2024/01/25 03:35:03;;;;;;;13.98;7.95;;;;;;;;;;5053577;28;20036;-79
2024/01/25 03:37:29;;;;;;;9.73;7.57;;;;;;;;;;5051678;28;20071;-77
2024/01/25 03:39:55;;;;;;;7.75;6.95;;;;;;;;;;5054225;28;20036;-80
2024/01/25 03:42:21;;;;;;;8.65;6.38;;;;;;;;;;5053641;28;20029;-81
2024/01/25 03:44:48;;;;;;;12.80;9.20;;;;;;;;;;5038298;28;20059;-82
2024/01/25 03:47:14;;;;;;;9.73;8.38;;;;;;;;;;5039777;28;20033;-80
2024/01/25 03:49:39;;;;;;;9.43;7.85;;;;;;;;;;5052645;28;20041;-79
2024/01/25 03:52:05;;;;;;;15.13;11.10;;;;;;;;;;5050584;28;20041;-79
2024/01/25 03:54:31;;;;;;;10.35;7.75;;;;;;;;;;5050056;28;20064;-79
2024/01/25 03:56:57;;;;;;;13.75;11.25;;;;;;;;;;5052662;28;20089;-81
2024/01/25 03:59:23;;;;;;;9.90;8.02;;;;;;;;;;5058218;28;20624;-81
2024/01/25 04:01:49;;;;;;;13.70;12.35;;;;;;;;;;5055106;28;20029;-80
2024/01/25 04:04:15;;;;;;;11.65;9.75;;;;;;;;;;5057417;28;20571;-80
2024/01/25 04:06:42;;;;;;;13.18;10.63;;;;;;;;;;5038668;28;20043;-81
2024/01/25 04:09:09;;;;;;;11.82;10.63;;;;;;;;;;5039885;28;20029;-81
2024/01/25 04:11:35;;;;;;;14.85;13.32;;;;;;;;;;5037554;28;20035;-80
2024/01/25 04:14:01;;;;;;;9.27;8.43;;;;;;;;;;5023307;28;20569;-79
2024/01/25 04:16:27;;;;;;;12.88;10.52;;;;;;;;;;5035447;28;20032;-79
2024/01/25 04:18:53;;;;;;;13.15;8.95;;;;;;;;;;5033307;28;20064;-79
2024/01/25 04:21:19;;;;;;;9.38;8.10;;;;;;;;;;5034464;28;20040;-80
2024/01/25 04:23:45;;;;;;;11.75;9.85;;;;;;;;;;5048657;28;20156;-78
2024/01/25 04:26:14;;;;;;;13.25;11.90;;;;;;;;;;5032879;28;20025;-80
2024/01/25 04:28:40;;;;;;;12.73;9.02;;;;;;;;;;5065834;28;20025;-79
2024/01/25 04:31:06;;;;;;;8.82;7.00;;;;;;;;;;5056956;28;20033;-79
2024/01/25 04:33:32;;;;;;;12.98;9.35;;;;;;;;;;5054936;28;20033;-79
2024/01/25 04:35:58;;;;;;;9.77;8.48;;;;;;;;;;5033200;28;20463;-78
2024/01/25 04:38:23;;;;;;;13.27;10.48;;;;;;;;;;5048760;28;20052;-79
2024/01/25 04:40:49;;;;;;;9.38;8.38;;;;;;;;;;5031639;28;20028;-77
2024/01/25 04:43:15;;;;;;;13.52;9.02;;;;;;;;;;5035280;28;20045;-79
2024/01/25 04:45:41;;;;;;;11.75;9.95;;;;;;;;;;5056996;28;20063;-81
2024/01/25 04:48:07;;;;;;;15.80;9.63;;;;;;;;;;5057198;28;20148;-81
2024/01/25 04:50:33;;;;;;;9.52;8.15;;;;;;;;;;5053795;28;20032;-80
2024/01/25 04:53:01;;;;;;;19.23;12.07;;;;;;;;;;5036557;28;20033;-80
2024/01/25 04:55:27;;;;;;;10.68;9.35;;;;;;;;;;5037921;28;20033;-80
2024/01/25 04:57:53;;;;;;;21.90;14.45;;;;;;;;;;5023511;28;20155;-80
2024/01/25 05:00:22;;;;;;;14.52;11.02;;;;;;;;;;5038235;28;20036;-79
2024/01/25 05:02:48;;;;;;;15.45;12.00;;;;;;;;;;5056685;28;20033;-80
2024/01/25 05:05:14;;;;;;;13.60;9.80;;;;;;;;;;5039658;28;20033;-80
2024/01/25 05:07:41;;;;;;;12.18;9.95;;;;;;;;;;5039253;28;20033;-80
2024/01/25 05:10:07;;;;;;;10.07;8.50;;;;;;;;;;5021717;28;20037;-79
2024/01/25 05:12:33;;;;;;;13.60;9.63;;;;;;;;;;5054536;28;20029;-75
2024/01/25 05:15:00;;;;;;;17.92;9.52;;;;;;;;;;5044981;28;20036;-75
2024/01/25 05:17:26;;;;;;;13.25;9.75;;;;;;;;;;5028376;28;20533;-76
2024/01/25 05:19:52;;;;;;;13.20;10.20;;;;;;;;;;5046071;28;20041;-75
2024/01/25 05:22:18;;;;;;;15.32;10.00;;;;;;;;;;5045342;28;21481;-76
2024/01/25 05:24:46;;;;;;;9.65;8.52;;;;;;;;;;5047910;28;20029;-77
2024/01/25 05:27:12;;;;;;;8.50;7.30;;;;;;;;;;5047730;28;20036;-77
2024/01/25 05:29:38;;;;;;;12.95;9.75;;;;;;;;;;5038649;28;20063;-78
2024/01/25 05:32:04;;;;;;;11.13;9.40;;;;;;;;;;5049015;28;20036;-78
2024/01/25 05:34:29;;;;;;;16.23;10.80;;;;;;;;;;5015869;28;20033;-77
2024/01/25 05:36:55;;;;;;;11.38;9.05;;;;;;;;;;5055358;28;20045;-77
2024/01/25 05:39:21;;;;;;;17.45;11.80;;;;;;;;;;5053101;28;20058;-77
2024/01/25 05:41:47;;;;;;;14.82;11.50;;;;;;;;;;5015656;28;20522;-77
2024/01/25 05:44:13;;;;;;;12.45;8.40;;;;;;;;;;5032366;28;20033;-77
2024/01/25 05:46:39;;;;;;;19.60;11.02;;;;;;;;;;5047781;28;20068;-74
2024/01/25 05:49:05;;;;;;;11.90;8.95;;;;;;;;;;4996739;28;20504;-74
2024/01/25 05:51:31;;;;;;;17.63;9.43;;;;;;;;;;5047053;28;20049;-75
2024/01/25 05:53:57;;;;;;;14.20;9.60;;;;;;;;;;5048427;28;20533;-75
2024/01/25 05:56:22;;;;;;;9.50;8.50;;;;;;;;;;5030494;28;20032;-75
2024/01/25 05:58:48;;;;;;;15.48;11.55;;;;;;;;;;5048499;28;20037;-75
2024/01/25 06:01:14;;;;;;;16.75;10.43;;;;;;;;;;5049396;28;20393;-75
2024/01/25 06:03:40;;;;;;;12.65;9.50;;;;;;;;;;5049948;28;20652;-76
2024/01/25 06:06:07;;;;;;;16.90;11.48;;;;;;;;;;5047536;28;20090;-75
2024/01/25 06:08:34;;;;;;;9.70;8.07;;;;;;;;;;5030808;28;20025;-75
2024/01/25 06:11:00;;;;;;;13.90;11.13;;;;;;;;;;5049272;28;20066;-74
2024/01/25 06:13:26;;;;;;;15.57;9.98;;;;;;;;;;5035130;28;20029;-75
2024/01/25 06:15:51;;;;;;;14.32;9.43;;;;;;;;;;5050227;28;20044;-75
2024/01/25 06:18:17;;;;;;;13.52;9.90;;;;;;;;;;5051199;28;20056;-75
2024/01/25 06:20:44;;;;;;;13.35;9.63;;;;;;;;;;5031903;28;20078;-74
2024/01/25 06:23:09;;;;;;;11.10;7.22;;;;;;;;;;5059518;28;20037;-78
2024/01/25 06:25:36;;;;;;;11.40;9.30;;;;;;;;;;5043086;28;20028;-78
2024/01/25 06:28:03;;;;;;;13.20;10.27;;;;;;;;;;5038755;28;20040;-77
2024/01/25 06:30:29;;;;;;;14.15;10.07;;;;;;;;;;5032619;28;20033;-76
2024/01/25 06:32:55;;;;;;;11.98;9.15;;;;;;;;;;5031749;28;20068;-77
2024/01/25 06:35:21;;;;;;;9.82;8.63;;;;;;;;;;5049279;28;20380;-76
2024/01/25 06:37:47;;;;;;;13.13;9.40;;;;;;;;;;5015887;28;20049;-77
2024/01/25 06:40:13;;;;;;;20.27;10.23;;;;;;;;;;5030728;28;20110;-76
2024/01/25 06:42:39;;;;;;;12.10;8.20;;;;;;;;;;5050561;28;20127;-77
2024/01/25 06:45:05;;;;;;;12.93;9.95;;;;;;;;;;5048267;28;20028;-77
2024/01/25 06:47:32;;;;;;;10.95;8.52;;;;;;;;;;5049844;28;20102;-77
2024/01/25 06:49:58;;;;;;;12.00;8.80;;;;;;;;;;5056506;28;20029;-76
2024/01/25 06:52:24;;;;;;;8.77;7.88;;;;;;;;;;5027258;28;20040;-77
2024/01/25 06:54:50;;;;;;;12.05;8.93;;;;;;;;;;5058888;28;20025;-77
2024/01/25 06:57:16;;;;;;;14.75;9.05;;;;;;;;;;5006405;28;20037;-76
2024/01/25 06:59:42;;;;;;;12.13;7.82;;;;;;;;;;5042965;28;20040;-77
2024/01/25 07:02:08;;;;;;;8.85;7.95;;;;;;;;;;5036596;28;20035;-77
2024/01/25 07:04:34;;;;;;;10.40;8.65;;;;;;;;;;5039739;28;20037;-76
2024/01/25 07:07:00;;;;;;;12.00;10.18;;;;;;;;;;5040257;28;20041;-76
2024/01/25 07:09:26;;;;;;;9.35;7.68;;;;;;;;;;5051091;28;20043;-76
2024/01/25 07:11:53;;;;;;;10.30;8.23;;;;;;;;;;5049958;28;20064;-77
2024/01/25 07:14:19;;;;;;;13.15;8.63;;;;;;;;;;5016202;28;20044;-77
2024/01/25 07:16:44;;;;;;;11.27;9.90;;;;;;;;;;5037073;28;20041;-77
2024/01/25 07:19:10;;;;;;;12.43;8.88;;;;;;;;;;5044336;28;20427;-75
2024/01/25 07:21:36;;;;;;;10.18;6.93;;;;;;;;;;5048431;28;20108;-76
2024/01/25 07:24:02;;;;;;;8.55;7.72;;;;;;;;;;5031179;28;20048;-77
2024/01/25 07:26:30;;;;;;;10.85;8.85;;;;;;;;;;5049934;28;20511;-77
2024/01/25 07:28:58;;;;;;;6.93;6.28;;;;;;;;;;5012587;28;20041;-76
2024/01/25 07:31:27;;;;;;;11.38;7.82;;;;;;;;;;5031178;28;20514;-77
2024/01/25 07:33:53;;;;;;;10.40;8.68;;;;;;;;;;5046226;28;20557;-75
2024/01/25 07:36:19;;;;;;;13.30;11.90;;;;;;;;;;5030764;28;20040;-76
2024/01/25 07:38:48;;;;;;;8.70;7.30;;;;;;;;;;5040181;28;20045;-83
2024/01/25 07:41:14;;;;;;;7.05;5.97;;;;;;;;;;5051639;28;20028;-81
2024/01/25 07:43:40;;;;;;;8.95;7.47;;;;;;;;;;5063647;28;20094;-80
2024/01/25 07:46:07;;;;;;;13.93;9.23;;;;;;;;;;5045562;28;20029;-80
2024/01/25 07:48:33;;;;;;;13.57;9.80;;;;;;;;;;5043759;28;20036;-79
2024/01/25 07:50:58;;;;;;;10.57;8.18;;;;;;;;;;5065556;28;20033;-82
2024/01/25 07:53:24;;;;;;;15.63;11.93;;;;;;;;;;5053344;28;20048;-82
2024/01/25 07:55:50;;;;;;;8.50;7.00;;;;;;;;;;5045905;28;20834;-77
2024/01/25 07:58:16;;;;;;;10.60;7.88;;;;;;;;;;5072353;28;20108;-82
2024/01/25 08:00:45;;;;;;;13.15;11.85;;;;;;;;;;5061244;28;20107;-78
2024/01/25 08:03:11;;;;;;;9.27;7.50;;;;;;;;;;5048176;28;20033;-76
2024/01/25 08:05:37;;;;;;;8.93;6.78;;;;;;;;;;5015011;28;20031;-75
2024/01/25 08:08:03;;;;;;;11.35;8.52;;;;;;;;;;5051075;28;20040;-77
2024/01/25 08:10:29;;;;;;;10.20;9.20;;;;;;;;;;5060063;28;20040;-75
2024/01/25 08:12:55;;;;;;;11.15;10.05;;;;;;;;;;5050976;28;20032;-76
2024/01/25 08:15:20;;;;;;;5.70;5.10;;;;;;;;;;5016885;28;20036;-77
2024/01/25 08:17:46;;;;;;;12.65;9.88;;;;;;;;;;5050296;28;20045;-77
2024/01/25 08:20:15;;;;;;;9.95;8.95;;;;;;;;;;5053941;28;20021;-79
2024/01/25 08:22:41;;;;;;;11.05;9.93;;;;;;;;;;5035289;28;20048;-76
2024/01/25 08:25:07;;;;;;;11.63;9.15;;;;;;;;;;5038949;28;20055;-77
2024/01/25 08:27:34;;;;;;;18.83;15.13;;;;;;;;;;5066022;28;20090;-77
2024/01/25 08:29:59;;;;;;;12.23;10.07;;;;;;;;;;5054705;28;20090;-77
2024/01/25 08:32:25;;;;;;;7.57;6.82;;;;;;;;;;5031073;28;20446;-77
2024/01/25 08:34:51;;;;;;;12.98;9.35;;;;;;;;;;5030824;28;20040;-77
2024/01/25 08:37:17;;;;;;;15.20;12.35;;;;;;;;;;5048563;28;20048;-76
2024/01/25 08:39:45;;;;;;;14.93;11.73;;;;;;;;;;5048688;28;20041;-76
2024/01/25 08:42:12;;;;;;;14.88;9.30;;;;;;;;;;5048220;28;20061;-77
2024/01/25 08:44:39;;;;;;;9.43;8.43;;;;;;;;;;5048526;28;20029;-77
2024/01/25 08:47:05;;;;;;;16.77;11.35;;;;;;;;;;5014107;28;20037;-76
2024/01/25 08:49:31;;;;;;;18.23;12.32;;;;;;;;;;5048515;28;20403;-76
2024/01/25 08:51:57;;;;;;;14.98;7.60;;;;;;;;;;5050659;28;20029;-77
2024/01/25 08:54:23;;;;;;;14.82;10.25;;;;;;;;;;5049781;28;20044;-76
2024/01/25 08:56:49;;;;;;;17.58;9.68;;;;;;;;;;5030684;28;20040;-77
2024/01/25 08:59:15;;;;;;;10.90;8.77;;;;;;;;;;5030413;28;20044;-77
2024/01/25 09:01:41;;;;;;;10.32;7.80;;;;;;;;;;5014316;28;20033;-76
2024/01/25 09:04:07;;;;;;;11.15;9.40;;;;;;;;;;5030592;28;20072;-77
2024/01/25 09:06:33;;;;;;;9.05;7.53;;;;;;;;;;5031384;28;20032;-76
2024/01/25 09:08:59;;;;;;;12.60;10.43;;;;;;;;;;5049012;28;20037;-76
2024/01/25 09:11:25;;;;;;;12.32;8.60;;;;;;;;;;5053305;28;20116;-78
2024/01/25 09:13:53;;;;;;;12.23;9.73;;;;;;;;;;5053454;28;20040;-77
2024/01/25 09:16:28;;;;;;;10.73;9.63;;;;;;;;;;5052369;28;20102;-77
2024/01/25 09:18:54;;;;;;;12.40;10.25;;;;;;;;;;5053949;28;20048;-79
2024/01/25 09:21:29;;;;;;;9.85;8.75;;;;;;;;;;5051877;28;20121;-78
2024/01/25 09:23:55;;;;;;;9.30;8.32;;;;;;;;;;5034531;28;20037;-78
2024/01/25 09:26:21;;;;;;;13.75;9.15;;;;;;;;;;5034840;28;20086;-77
2024/01/25 09:28:47;;;;;;;11.10;9.18;;;;;;;;;;5018191;28;20033;-77
2024/01/25 09:31:13;;;;;;;12.30;9.18;;;;;;;;;;5051525;28;20043;-77
2024/01/25 09:33:39;;;;;;;11.13;8.57;;;;;;;;;;5035058;28;20028;-77
2024/01/25 09:36:07;;;;;;;8.52;7.35;;;;;;;;;;5052599;28;20403;-77
2024/01/25 09:38:33;;;;;;;10.25;9.25;;;;;;;;;;5033993;28;20068;-77
2024/01/25 09:41:00;;;;;;;9.93;8.85;;;;;;;;;;5051801;28;20087;-77
2024/01/25 09:43:27;;;;;;;11.40;8.50;;;;;;;;;;5034277;28;20033;-77
2024/01/25 09:45:54;;;;;;;10.85;8.65;;;;;;;;;;5033894;28;20039;-76
2024/01/25 09:48:20;;;;;;;10.02;7.63;;;;;;;;;;5051706;28;20128;-77
2024/01/25 09:50:47;;;;;;;13.07;11.45;;;;;;;;;;5051720;28;20128;-77
2024/01/25 09:53:14;;;;;;;10.73;9.43;;;;;;;;;;5034193;28;20024;-77
2024/01/25 09:55:40;;;;;;;12.48;9.95;;;;;;;;;;5034924;28;20044;-77
2024/01/25 09:58:07;;;;;;;11.85;9.27;;;;;;;;;;5054320;28;20044;-77
2024/01/25 10:00:33;;;;;;;9.75;8.00;;;;;;;;;;5064335;28;20032;-76
2024/01/25 10:02:59;;;;;;;11.63;9.55;;;;;;;;;;5053490;28;20062;-77
2024/01/25 10:05:25;;;;;;;14.70;11.57;;;;;;;;;;5033894;28;20044;-77
2024/01/25 10:07:51;;;;;;;14.70;10.25;;;;;;;;;;5019290;28;20082;-78
2024/01/25 10:10:16;;;;;;;12.48;9.70;;;;;;;;;;5036371;28;20495;-79
2024/01/25 10:12:43;;;;;;;7.32;6.20;;;;;;;;;;5035143;28;20503;-77
2024/01/25 10:15:10;;;;;;;9.50;8.52;;;;;;;;;;5050552;28;20047;-77
2024/01/25 10:17:36;;;;;;;11.15;9.00;;;;;;;;;;5001940;28;20130;-78
2024/01/25 10:20:06;;;;;;;13.02;9.95;;;;;;;;;;5032989;28;20057;-78
2024/01/25 10:22:32;;;;;;;9.00;8.10;;;;;;;;;;5032678;28;20602;-77
2024/01/25 10:24:58;;;;;;;9.60;8.43;;;;;;;;;;5032715;28;20124;-78
2024/01/25 10:27:24;;;;;;;16.13;11.48;;;;;;;;;;5050468;28;20515;-77
2024/01/25 10:29:50;;;;;;;9.07;8.23;;;;;;;;;;5032673;28;20045;-78
2024/01/25 10:32:17;;;;;;;12.40;10.43;;;;;;;;;;5050398;28;20395;-77
2024/01/25 10:34:43;;;;;;;8.20;6.72;;;;;;;;;;5032599;28;20029;-77
2024/01/25 10:37:09;;;;;;;7.63;6.90;;;;;;;;;;5015799;28;20510;-78
2024/01/25 10:39:35;;;;;;;11.93;6.78;;;;;;;;;;5050045;28;20495;-77
2024/01/25 10:42:01;;;;;;;9.98;7.68;;;;;;;;;;5050236;28;20033;-77
2024/01/25 10:44:27;;;;;;;12.93;8.90;;;;;;;;;;5032250;28;20037;-78
2024/01/25 10:46:54;;;;;;;14.25;10.15;;;;;;;;;;5050411;28;20095;-78
2024/01/25 10:49:21;;;;;;;11.23;8.50;;;;;;;;;;5050065;28;20068;-78
2024/01/25 10:51:49;;;;;;;10.25;7.68;;;;;;;;;;5032706;28;20653;-77
2024/01/25 10:54:15;;;;;;;8.38;7.38;;;;;;;;;;5050158;28;20032;-77
2024/01/25 10:56:41;;;;;;;10.02;9.02;;;;;;;;;;5000330;28;20086;-78
2024/01/25 10:59:08;;;;;;;9.85;8.38;;;;;;;;;;5032323;28;20032;-78
2024/01/25 11:01:34;;;;;;;11.88;9.52;;;;;;;;;;5032015;28;20381;-77
2024/01/25 11:04:00;;;;;;;14.80;10.52;;;;;;;;;;5050187;28;20044;-78
2024/01/25 11:06:27;;;;;;;7.25;6.55;;;;;;;;;;5032370;28;20491;-78
2024/01/25 11:09:04;;;;;;;8.07;7.25;;;;;;;;;;5050651;28;20101;-78
2024/01/25 11:11:32;;;;;;;12.77;9.75;;;;;;;;;;5017062;28;20044;-77
2024/01/25 11:13:58;;;;;;;8.85;7.95;;;;;;;;;;5033683;28;20045;-78
2024/01/25 11:16:28;;;;;;;11.32;8.38;;;;;;;;;;5052667;28;20068;-78
2024/01/25 11:18:54;;;;;;;10.68;9.63;;;;;;;;;;5042055;28;20040;-78
2024/01/25 11:21:25;;;;;;;8.45;6.78;;;;;;;;;;5062534;28;20037;-78
2024/01/25 11:23:59;;;;;;;9.77;7.47;;;;;;;;;;5035017;28;20050;-77
2024/01/25 11:26:25;;;;;;;11.25;9.70;;;;;;;;;;5050033;28;20028;-77
2024/01/25 11:28:51;;;;;;;15.45;9.82;;;;;;;;;;5030097;28;20056;-76
2024/01/25 11:31:17;;;;;;;11.18;10.00;;;;;;;;;;5009663;28;20075;-78
2024/01/25 11:33:43;;;;;;;16.50;12.90;;;;;;;;;;5014251;28;20124;-79
2024/01/25 11:36:09;;;;;;;10.05;8.57;;;;;;;;;;5044216;28;20041;-78
2024/01/25 11:38:36;;;;;;;12.77;7.13;;;;;;;;;;5049275;28;20540;-77
2024/01/25 11:41:02;;;;;;;15.68;11.18;;;;;;;;;;5049608;28;20040;-78
2024/01/25 11:43:30;;;;;;;17.02;10.88;;;;;;;;;;5012201;28;20037;-78
2024/01/25 11:45:56;;;;;;;13.75;12.00;;;;;;;;;;5050197;28;20036;-79
2024/01/25 11:48:22;;;;;;;15.40;9.80;;;;;;;;;;5045449;28;20025;-78
2024/01/25 11:50:49;;;;;;;11.20;10.05;;;;;;;;;;5025356;28;20033;-78
2024/01/25 11:53:15;;;;;;;13.30;9.57;;;;;;;;;;5025602;28;20165;-80
2024/01/25 11:55:41;;;;;;;10.95;9.45;;;;;;;;;;5035434;28;20230;-78
2024/01/25 11:58:07;;;;;;;11.43;9.93;;;;;;;;;;5038119;28;20049;-79
2024/01/25 12:00:32;;;;;;;9.70;8.70;;;;;;;;;;5030763;28;20723;-78
2024/01/25 12:02:58;;;;;;;16.27;11.50;;;;;;;;;;5030407;28;20039;-77
2024/01/25 12:05:24;;;;;;;12.30;8.45;;;;;;;;;;5048191;28;20399;-77
2024/01/25 12:07:50;;;;;;;12.57;10.35;;;;;;;;;;5039381;28;20063;-77
2024/01/25 12:10:17;;;;;;;17.08;12.40;;;;;;;;;;5048321;28;20067;-78
2024/01/25 12:12:45;;;;;;;12.90;9.90;;;;;;;;;;5048334;28;20048;-77
2024/01/25 12:15:11;;;;;;;12.55;10.48;;;;;;;;;;5045539;28;20025;-78
2024/01/25 12:17:38;;;;;;;12.32;9.23;;;;;;;;;;5027224;28;20139;-79
2024/01/25 12:20:10;;;;;;;13.60;10.68;;;;;;;;;;5031432;28;20507;-78
2024/01/25 12:22:36;;;;;;;12.88;7.70;;;;;;;;;;5048290;28;20041;-79
2024/01/25 12:25:02;;;;;;;15.38;11.13;;;;;;;;;;5048851;28;20033;-79
2024/01/25 12:27:30;;;;;;;20.98;14.40;;;;;;;;;;5031239;28;20064;-79
2024/01/25 12:29:56;;;;;;;11.20;9.82;;;;;;;;;;5043168;28;20427;-76
2024/01/25 12:32:22;;;;;;;16.90;11.95;;;;;;;;;;5047193;28;20059;-78
2024/01/25 12:34:55;;;;;;;17.83;13.27;;;;;;;;;;5022020;28;20875;-79
2024/01/25 12:37:20;;;;;;;17.17;13.07;;;;;;;;;;5041038;28;20049;-82
2024/01/25 12:39:46;;;;;;;12.13;10.52;;;;;;;;;;5056517;28;20037;-78
2024/01/25 12:42:13;;;;;;;14.38;10.88;;;;;;;;;;5045512;28;20091;-79
2024/01/25 12:44:39;;;;;;;17.23;12.38;;;;;;;;;;5050371;28;20083;-79
2024/01/25 12:47:07;;;;;;;13.45;9.88;;;;;;;;;;5035350;28;20067;-80
2024/01/25 12:49:33;;;;;;;16.20;9.88;;;;;;;;;;5052875;28;20079;-79
2024/01/25 12:52:01;;;;;;;9.63;8.25;;;;;;;;;;5036535;28;20415;-79
2024/01/25 12:54:28;;;;;;;13.98;11.07;;;;;;;;;;5053854;28;20037;-80
2024/01/25 12:56:54;;;;;;;14.30;12.63;;;;;;;;;;5052401;28;20040;-78
2024/01/25 12:59:20;;;;;;;12.88;11.57;;;;;;;;;;5052827;28;20423;-80
2024/01/25 13:01:46;;;;;;;13.73;9.82;;;;;;;;;;5050327;28;20385;-79
2024/01/25 13:04:12;;;;;;;13.55;9.85;;;;;;;;;;5033423;28;20133;-77
2024/01/25 13:06:37;;;;;;;13.52;8.43;;;;;;;;;;5017439;28;20756;-77
2024/01/25 13:09:03;;;;;;;17.40;12.85;;;;;;;;;;5052384;28;20048;-79
2024/01/25 13:11:29;;;;;;;14.85;9.95;;;;;;;;;;5035489;28;20511;-79
2024/01/25 13:13:55;;;;;;;16.20;10.65;;;;;;;;;;5018151;28;20037;-79
2024/01/25 13:16:21;;;;;;;13.85;11.73;;;;;;;;;;5035799;28;20090;-80
2024/01/25 13:18:47;;;;;;;17.08;11.23;;;;;;;;;;5055440;28;20041;-80
2024/01/25 13:21:13;;;;;;;17.88;10.55;;;;;;;;;;5054974;28;20037;-79
2024/01/25 13:23:39;;;;;;;17.13;13.07;;;;;;;;;;5056958;28;20097;-79
2024/01/25 13:26:04;;;;;;;13.02;10.82;;;;;;;;;;5058974;28;20041;-81
2024/01/25 13:28:30;;;;;;;10.43;9.23;;;;;;;;;;5057059;28;20061;-80
2024/01/25 13:30:57;;;;;;;9.80;8.13;;;;;;;;;;5057181;28;20040;-79
2024/01/25 13:33:23;;;;;;;9.00;8.05;;;;;;;;;;5057298;28;20621;-80
2024/01/25 13:35:49;;;;;;;12.00;9.77;;;;;;;;;;5039957;28;20072;-80
2024/01/25 13:38:16;;;;;;;11.98;10.05;;;;;;;;;;5056605;28;20061;-80
2024/01/25 13:40:42;;;;;;;15.73;12.18;;;;;;;;;;5046617;28;20029;-80
2024/01/25 13:43:08;;;;;;;8.23;7.40;;;;;;;;;;5049807;28;20039;-79
2024/01/25 13:45:34;;;;;;;12.25;10.98;;;;;;;;;;5061058;28;20116;-79
2024/01/25 13:48:00;;;;;;;14.23;12.27;;;;;;;;;;5043585;28;20055;-79
2024/01/25 13:50:26;;;;;;;17.60;12.57;;;;;;;;;;5044928;28;20458;-80
2024/01/25 13:52:52;;;;;;;14.60;12.50;;;;;;;;;;5041701;28;20037;-77
2024/01/25 13:55:18;;;;;;;16.02;13.18;;;;;;;;;;5047227;28;20044;-80
2024/01/25 13:57:44;;;;;;;11.43;9.48;;;;;;;;;;5047978;28;20044;-80
2024/01/25 14:00:10;;;;;;;9.30;8.35;;;;;;;;;;5044577;28;20043;-81
2024/01/25 14:02:36;;;;;;;14.75;12.35;;;;;;;;;;5046177;28;20037;-80
2024/01/25 14:05:02;;;;;;;13.45;8.82;;;;;;;;;;5045926;28;20090;-80
2024/01/25 14:07:29;;;;;;;12.98;11.00;;;;;;;;;;5046460;28;20052;-81
2024/01/25 14:09:55;;;;;;;13.98;11.07;;;;;;;;;;5047596;28;20025;-81
2024/01/25 14:12:21;;;;;;;12.98;10.70;;;;;;;;;;5073341;28;20107;-80
2024/01/25 14:14:47;;;;;;;9.95;7.75;;;;;;;;;;5072834;28;20036;-79
2024/01/25 14:17:12;;;;;;;11.73;9.50;;;;;;;;;;5038148;28;20032;-79
2024/01/25 14:19:38;;;;;;;21.73;16.23;;;;;;;;;;5069059;28;20040;-80
2024/01/25 14:22:04;;;;;;;16.85;15.18;;;;;;;;;;5030625;28;20032;-80
2024/01/25 14:24:30;;;;;;;14.35;9.65;;;;;;;;;;5062849;28;20083;-82
2024/01/25 14:26:56;;;;;;;9.73;8.68;;;;;;;;;;5047395;28;20037;-81